createdAt,value
2018-07-12T00:01:41.657Z,8.33
2018-07-12T00:04:08.766Z,8.50
2018-07-12T00:06:35.866Z,7.87
2018-07-12T00:09:03.330Z,7.20
2018-07-12T00:11:30.438Z,7.13
2018-07-12T00:13:57.533Z,7.57
2018-07-12T00:16:24.653Z,8.67
2018-07-12T00:18:51.765Z,7.13
2018-07-12T00:21:18.867Z,8.17
2018-07-12T00:23:45.983Z,7.63
2018-07-12T00:26:13.176Z,7.97
2018-07-12T00:28:40.260Z,7.62
2018-07-12T00:31:07.378Z,7.63
2018-07-12T00:33:34.529Z,7.43
2018-07-12T00:36:01.573Z,7.83
2018-07-12T00:38:28.691Z,7.90
2018-07-12T00:40:55.801Z,7.60
2018-07-12T00:43:22.906Z,8.07
2018-07-12T00:45:50.018Z,7.60
2018-07-12T00:48:17.402Z,7.80
2018-07-12T00:50:44.515Z,8.50
2018-07-12T00:53:11.654Z,7.60
2018-07-12T00:55:38.749Z,8.10
2018-07-12T00:58:05.849Z,8.53
2018-07-12T01:00:32.973Z,8.30
2018-07-12T01:03:00.088Z,8.37
2018-07-12T01:05:27.199Z,8.93
2018-07-12T01:07:54.315Z,7.87
2018-07-12T01:10:21.467Z,8.30
2018-07-12T01:12:48.557Z,7.83
2018-07-12T01:15:15.671Z,7.57
2018-07-12T01:17:42.782Z,7.30
2018-07-12T01:20:09.881Z,7.77
2018-07-12T01:22:36.997Z,7.13
2018-07-12T01:25:04.103Z,7.30
2018-07-12T01:27:31.205Z,7.50
2018-07-12T01:29:58.313Z,7.63
2018-07-12T01:32:25.437Z,7.60
2018-07-12T01:34:52.532Z,7.77
2018-07-12T01:37:19.650Z,7.50
2018-07-12T01:39:46.754Z,8.07
2018-07-12T01:42:13.866Z,7.80
2018-07-12T01:44:40.982Z,8.00
2018-07-12T01:47:08.336Z,7.42
2018-07-12T01:49:35.436Z,7.93
2018-07-12T01:52:02.549Z,8.33
2018-07-12T01:54:29.756Z,8.40
2018-07-12T01:56:57.074Z,7.53
2018-07-12T01:59:24.189Z,8.00
2018-07-12T02:01:51.358Z,8.27
2018-07-12T02:04:18.813Z,8.70
2018-07-12T02:06:45.925Z,8.80
2018-07-12T02:09:13.025Z,9.03
2018-07-12T02:11:40.125Z,8.60
2018-07-12T02:14:07.233Z,8.73
2018-07-12T02:16:34.330Z,8.87
2018-07-12T02:19:01.505Z,8.90
2018-07-12T02:21:28.610Z,8.20
2018-07-12T02:23:55.707Z,7.87
2018-07-12T02:26:22.808Z,8.50
2018-07-12T02:28:49.946Z,8.03
2018-07-12T02:31:17.044Z,9.23
2018-07-12T02:33:44.145Z,9.20
2018-07-12T02:36:11.251Z,8.30
2018-07-12T02:38:38.358Z,8.27
2018-07-12T02:41:05.466Z,8.30
2018-07-12T02:43:32.577Z,9.10
2018-07-12T02:45:59.683Z,8.40
2018-07-12T02:48:26.792Z,8.27
2018-07-12T02:50:53.905Z,9.63
2018-07-12T02:53:21.005Z,9.10
2018-07-12T02:55:48.108Z,8.70
2018-07-12T02:58:15.226Z,9.27
2018-07-12T03:00:42.326Z,8.73
2018-07-12T03:03:09.438Z,9.40
2018-07-12T03:05:36.554Z,9.60
2018-07-12T03:08:03.673Z,9.60
2018-07-12T03:10:30.775Z,9.10
2018-07-12T03:12:57.890Z,9.20
2018-07-12T03:15:24.997Z,9.10
2018-07-12T03:17:52.097Z,8.70
2018-07-12T03:20:19.213Z,9.30
2018-07-12T03:22:46.332Z,10.20
2018-07-12T03:25:13.435Z,8.10
2018-07-12T03:27:40.541Z,8.83
2018-07-12T03:30:07.645Z,8.50
2018-07-12T03:32:34.749Z,8.93
2018-07-12T03:35:01.861Z,8.97
2018-07-12T03:37:28.969Z,9.03
2018-07-12T03:39:56.061Z,8.30
2018-07-12T03:42:23.177Z,8.20
2018-07-12T03:44:50.291Z,8.83
2018-07-12T03:47:17.414Z,8.53
2018-07-12T03:49:44.533Z,9.20
2018-07-12T03:52:11.710Z,9.07
2018-07-12T03:54:38.834Z,7.70
2018-07-12T03:57:06.190Z,8.20
2018-07-12T03:59:33.286Z,8.77
2018-07-12T04:02:00.388Z,8.93
2018-07-12T04:04:27.526Z,8.60
2018-07-12T04:06:54.634Z,8.20
2018-07-12T04:09:21.733Z,7.93
2018-07-12T04:11:48.845Z,9.00
2018-07-12T04:14:15.949Z,8.40
2018-07-12T04:16:43.354Z,8.10
2018-07-12T04:19:10.465Z,9.00
2018-07-12T04:21:38.217Z,8.73
2018-07-12T04:24:05.338Z,8.33
2018-07-12T04:26:32.445Z,8.90
2018-07-12T04:28:59.555Z,8.40
2018-07-12T04:31:26.692Z,8.03
2018-07-12T04:33:53.895Z,9.03
2018-07-12T04:36:21.132Z,8.07
2018-07-12T04:38:48.233Z,8.13
2018-07-12T04:41:15.353Z,7.97
2018-07-12T04:43:42.445Z,8.20
2018-07-12T04:46:09.548Z,8.53
2018-07-12T04:48:36.657Z,7.70
2018-07-12T04:51:03.759Z,7.33
2018-07-12T04:53:30.859Z,7.40
2018-07-12T04:55:57.982Z,7.90
2018-07-12T04:58:25.114Z,7.13
2018-07-12T05:00:52.194Z,8.00
2018-07-12T05:03:19.300Z,7.67
2018-07-12T05:05:46.424Z,6.93
2018-07-12T05:08:13.549Z,7.77
2018-07-12T05:10:40.633Z,7.07
2018-07-12T05:13:07.733Z,7.60
2018-07-12T05:15:34.838Z,8.50
2018-07-12T05:18:01.962Z,7.47
2018-07-12T05:20:29.101Z,7.00
2018-07-12T05:22:56.205Z,8.00
2018-07-12T05:25:23.416Z,7.83
2018-07-12T05:27:50.511Z,7.53
2018-07-12T05:30:17.621Z,7.50
2018-07-12T05:32:44.735Z,8.13
2018-07-12T05:35:12.157Z,9.43
2018-07-12T05:37:40.315Z,8.10
2018-07-12T05:40:08.519Z,8.30
2018-07-12T05:42:36.683Z,9.43
2018-07-12T05:45:04.913Z,9.70
2018-07-12T05:47:33.077Z,9.03
2018-07-12T05:50:01.249Z,9.70
2018-07-12T05:52:29.422Z,9.90
2018-07-12T05:54:57.602Z,9.00
2018-07-12T05:57:25.834Z,10.37
2018-07-12T05:59:53.956Z,9.80
2018-07-12T06:02:23.582Z,10.10
2018-07-12T06:04:51.954Z,11.03
2018-07-12T06:07:25.574Z,9.67
2018-07-12T06:09:54.038Z,11.10
2018-07-12T06:12:22.206Z,10.83
2018-07-12T06:14:50.796Z,10.17
2018-07-12T06:17:19.015Z,9.90
2018-07-12T06:19:47.436Z,11.10
2018-07-12T06:22:15.679Z,10.60
2018-07-12T06:24:43.920Z,10.90
2018-07-12T06:27:12.037Z,10.87
2018-07-12T06:29:40.226Z,10.73
2018-07-12T06:32:08.411Z,11.27
2018-07-12T06:34:36.687Z,9.70
2018-07-12T06:37:04.924Z,11.10
2018-07-12T06:39:33.089Z,10.50
2018-07-12T06:42:01.423Z,11.40
2018-07-12T06:44:29.661Z,11.40
2018-07-12T06:46:58.476Z,10.57
2018-07-12T06:49:26.628Z,10.13
2018-07-12T06:51:54.899Z,9.87
2018-07-12T06:54:23.070Z,10.87
2018-07-12T06:56:51.333Z,10.87
2018-07-12T06:59:19.516Z,11.73
2018-07-12T07:01:47.691Z,11.57
2018-07-12T07:04:15.858Z,10.10
2018-07-12T07:06:44.158Z,11.50
2018-07-12T07:09:12.622Z,11.90
2018-07-12T07:11:41.340Z,11.20
2018-07-12T07:14:09.928Z,11.60
2018-07-12T07:16:38.204Z,11.77
2018-07-12T07:19:06.396Z,11.33
2018-07-12T07:21:34.618Z,12.00
2018-07-12T07:24:02.808Z,10.07
2018-07-12T07:26:30.987Z,10.87
2018-07-12T07:28:59.198Z,10.30
2018-07-12T07:31:27.522Z,11.77
2018-07-12T07:33:55.706Z,10.97
2018-07-12T07:36:23.970Z,22.13
2018-07-12T07:38:52.152Z,13.57
2018-07-12T07:41:20.322Z,11.30
2018-07-12T07:43:48.520Z,11.10
2018-07-12T07:46:16.757Z,10.87
2018-07-12T07:48:44.921Z,10.10
2018-07-12T07:51:13.125Z,9.97
2018-07-12T07:53:41.293Z,10.20
2018-07-12T07:56:09.458Z,9.90
2018-07-12T07:58:37.979Z,9.60
2018-07-12T08:01:06.149Z,8.37
2018-07-12T08:03:34.330Z,9.70
2018-07-12T08:06:02.519Z,8.47
2018-07-12T08:08:30.729Z,8.97
2018-07-12T08:10:59.013Z,7.67
2018-07-12T08:13:27.201Z,8.63
2018-07-12T08:15:55.649Z,9.27
2018-07-12T08:18:23.822Z,9.27
2018-07-12T08:20:51.997Z,9.47
2018-07-12T08:23:20.152Z,9.87
2018-07-12T08:25:48.659Z,8.43
2018-07-12T08:28:24.346Z,8.20
2018-07-12T08:30:52.518Z,8.20
2018-07-12T08:33:20.811Z,7.93
2018-07-12T08:35:49.301Z,9.43
2018-07-12T08:38:17.510Z,9.47
2018-07-12T08:40:46.053Z,8.87
2018-07-12T08:43:14.230Z,8.77
2018-07-12T08:45:42.701Z,9.47
2018-07-12T08:48:10.871Z,10.00
2018-07-12T08:50:39.465Z,8.57
2018-07-12T08:53:07.848Z,7.87
2018-07-12T08:55:36.013Z,8.10
2018-07-12T08:58:04.249Z,8.90
2018-07-12T09:00:32.432Z,8.17
2018-07-12T09:03:00.693Z,8.67
2018-07-12T09:05:28.809Z,9.40
2018-07-12T09:07:56.979Z,9.47
2018-07-12T09:10:25.139Z,9.40
2018-07-12T09:12:53.762Z,9.37
2018-07-12T09:15:21.982Z,9.60
2018-07-12T09:17:50.262Z,9.37
2018-07-12T09:20:18.453Z,8.53
2018-07-12T09:22:46.697Z,9.03
2018-07-12T09:25:15.442Z,9.60
2018-07-12T09:27:43.679Z,9.70
2018-07-12T09:30:11.897Z,9.90
2018-07-12T09:32:40.064Z,9.07
2018-07-12T09:35:08.248Z,9.20
2018-07-12T09:37:36.451Z,8.97
2018-07-12T09:40:04.818Z,8.20
2018-07-12T09:42:33.010Z,7.97
2018-07-12T09:45:01.258Z,7.80
2018-07-12T09:47:29.623Z,8.17
2018-07-12T09:49:57.923Z,15.73
2018-07-12T09:52:33.326Z,7.37
2018-07-12T09:55:02.245Z,8.43
2018-07-12T09:57:42.372Z,8.53
2018-07-12T10:00:10.926Z,6.90
2018-07-12T10:02:44.521Z,6.57
2018-07-12T10:05:18.050Z,7.63
2018-07-12T10:07:51.609Z,7.77
2018-07-12T10:10:23.986Z,9.93
2018-07-12T10:12:57.465Z,7.63
2018-07-12T10:15:30.993Z,10.87
2018-07-12T10:18:36.239Z,7.40
2018-07-12T10:21:04.421Z,6.13
2018-07-12T10:23:32.584Z,5.00
2018-07-12T10:26:00.761Z,6.20
2018-07-12T10:28:29.004Z,6.13
2018-07-12T10:30:57.184Z,6.57
2018-07-12T10:33:25.363Z,5.17
2018-07-12T10:35:53.980Z,5.40
2018-07-12T10:38:22.538Z,4.80
2018-07-12T10:40:50.832Z,5.00
2018-07-12T10:43:19.024Z,4.60
2018-07-12T10:45:47.254Z,5.03
2018-07-12T10:48:15.426Z,4.53
2018-07-12T10:50:43.637Z,5.00
2018-07-12T10:53:11.940Z,4.43
2018-07-12T10:55:40.100Z,4.07
2018-07-12T10:58:08.309Z,4.67
2018-07-12T11:00:36.485Z,5.90
2018-07-12T11:03:04.697Z,5.43
2018-07-12T11:05:32.881Z,4.93
2018-07-12T11:08:01.097Z,4.83
2018-07-12T11:10:29.408Z,4.30
2018-07-12T11:13:09.102Z,4.87
2018-07-12T11:15:37.320Z,4.53
2018-07-12T11:18:05.610Z,5.00
2018-07-12T11:20:33.803Z,4.50
2018-07-12T11:23:01.971Z,4.47
2018-07-12T11:25:30.538Z,4.07
2018-07-12T11:27:58.729Z,4.80
2018-07-12T11:30:26.908Z,3.97
2018-07-12T11:32:55.158Z,3.60
2018-07-12T11:35:23.366Z,3.90
2018-07-12T11:37:51.648Z,3.77
2018-07-12T11:40:19.882Z,3.33
2018-07-12T11:42:48.494Z,4.07
2018-07-12T11:45:16.684Z,3.33
2018-07-12T11:47:44.850Z,3.50
2018-07-12T11:50:13.416Z,3.33
2018-07-12T11:52:41.659Z,2.87
2018-07-12T11:55:09.799Z,2.90
2018-07-12T11:57:37.984Z,2.43
2018-07-12T12:00:06.522Z,2.70
2018-07-12T12:02:34.993Z,2.97
2018-07-12T12:05:03.342Z,3.40
2018-07-12T12:07:31.590Z,3.23
2018-07-12T12:09:59.757Z,3.30
2018-07-12T12:12:27.976Z,3.10
2018-07-12T12:14:56.469Z,2.37
2018-07-12T12:17:24.669Z,2.90
2018-07-12T12:19:52.855Z,3.03
2018-07-12T12:22:21.031Z,2.73
2018-07-12T12:24:49.269Z,2.50
2018-07-12T12:27:17.482Z,2.20
2018-07-12T12:29:45.701Z,2.70
2018-07-12T12:32:13.873Z,2.40
2018-07-12T12:34:42.075Z,2.53
2018-07-12T12:37:10.565Z,2.87
2018-07-12T12:39:38.760Z,2.40
2018-07-12T12:42:06.967Z,2.80
2018-07-12T12:44:35.223Z,2.50
2018-07-12T12:47:03.398Z,4.50
2018-07-12T12:49:31.574Z,2.87
2018-07-12T12:51:59.746Z,2.60
2018-07-12T12:54:28.078Z,2.53
2018-07-12T12:56:56.562Z,2.10
2018-07-12T12:59:24.712Z,2.60
2018-07-12T13:01:52.902Z,2.10
2018-07-12T13:04:21.536Z,2.00
2018-07-12T13:06:49.741Z,2.20
2018-07-12T13:09:18.258Z,1.93
2018-07-12T13:11:46.434Z,1.97
2018-07-12T13:14:14.603Z,2.30
2018-07-12T13:16:42.757Z,1.82
2018-07-12T13:19:11.013Z,2.07
2018-07-12T13:21:39.273Z,1.85
2018-07-12T13:24:07.461Z,1.72
2018-07-12T13:26:35.645Z,1.90
2018-07-12T13:29:03.987Z,1.90
2018-07-12T13:31:32.145Z,1.67
2018-07-12T13:34:00.399Z,2.05
2018-07-12T13:36:28.593Z,1.75
2018-07-12T13:38:56.736Z,1.52
2018-07-12T13:41:24.943Z,2.00
2018-07-12T13:44:04.313Z,2.12
2018-07-12T13:46:32.499Z,1.67
2018-07-12T13:49:00.657Z,2.10
2018-07-12T13:51:28.906Z,2.67
2018-07-12T13:53:57.306Z,1.90
2018-07-12T13:56:25.557Z,3.23
2018-07-12T13:58:53.730Z,3.10
2018-07-12T14:01:21.952Z,2.07
2018-07-12T14:03:50.122Z,2.50
2018-07-12T14:06:18.309Z,4.90
2018-07-12T14:08:46.494Z,2.50
2018-07-12T14:11:14.721Z,2.43
2018-07-12T14:13:42.946Z,2.05
2018-07-12T14:16:11.141Z,2.00
2018-07-12T14:18:39.361Z,1.60
2018-07-12T14:21:07.541Z,1.90
2018-07-12T14:23:35.721Z,2.00
2018-07-12T14:26:04.176Z,1.80
2018-07-12T14:28:32.345Z,1.70
2018-07-12T14:31:00.561Z,2.00
2018-07-12T14:33:28.925Z,1.98
2018-07-12T14:35:57.163Z,1.90
2018-07-12T14:38:25.410Z,2.20
2018-07-12T14:40:53.590Z,2.15
2018-07-12T14:43:21.768Z,2.00
2018-07-12T14:45:49.941Z,2.33
2018-07-12T14:48:18.135Z,1.80
2018-07-12T14:50:46.327Z,2.00
2018-07-12T14:53:14.498Z,1.70
2018-07-12T14:55:42.679Z,1.90
2018-07-12T14:58:10.851Z,1.72
2018-07-12T15:00:39.026Z,1.87
2018-07-12T15:03:07.376Z,2.37
2018-07-12T15:05:35.643Z,2.22
2018-07-12T15:08:03.918Z,2.08
2018-07-12T15:10:32.186Z,2.00
2018-07-12T15:13:00.376Z,2.10
2018-07-12T15:15:28.586Z,1.87
2018-07-12T15:17:56.774Z,1.93
2018-07-12T15:20:24.989Z,2.77
2018-07-12T15:22:53.181Z,1.70
2018-07-12T15:25:21.358Z,2.43
2018-07-12T15:27:49.606Z,2.60
2018-07-12T15:30:17.718Z,2.57
2018-07-12T15:32:45.981Z,2.10
2018-07-12T15:35:14.154Z,3.63
2018-07-12T15:37:49.085Z,3.10
2018-07-12T15:40:17.289Z,2.23
2018-07-12T15:42:45.473Z,2.20
2018-07-12T15:45:13.989Z,3.60
2018-07-12T15:47:42.187Z,2.90
2018-07-12T15:50:10.477Z,2.50
2018-07-12T15:52:38.687Z,2.80
2018-07-12T15:55:07.194Z,3.47
2018-07-12T15:57:35.444Z,2.70
2018-07-12T16:00:03.690Z,2.97
2018-07-12T16:02:31.882Z,3.83
2018-07-12T16:05:00.079Z,4.23
2018-07-12T16:07:28.344Z,3.00
2018-07-12T16:09:56.514Z,6.30
2018-07-12T16:12:24.696Z,5.87
2018-07-12T16:14:52.888Z,8.37
2018-07-12T16:17:21.126Z,3.33
2018-07-12T16:19:49.317Z,3.67
2018-07-12T16:22:17.511Z,8.30
2018-07-12T16:24:45.697Z,4.60
2018-07-12T16:27:13.909Z,3.60
2018-07-12T16:29:42.329Z,3.57
2018-07-12T16:32:10.568Z,3.33
2018-07-12T16:34:38.741Z,5.53
2018-07-12T16:37:07.524Z,10.90
2018-07-12T16:39:35.680Z,3.47
2018-07-12T16:42:03.844Z,3.57
2018-07-12T16:44:32.033Z,4.77
2018-07-12T16:47:00.219Z,6.60
2018-07-12T16:49:28.403Z,3.43
2018-07-12T16:51:56.594Z,4.10
2018-07-12T16:54:24.806Z,3.50
2018-07-12T16:56:53.088Z,3.00
2018-07-12T16:59:21.260Z,6.03
2018-07-12T17:01:49.734Z,3.90
2018-07-12T17:04:17.954Z,5.10
2018-07-12T17:06:46.146Z,11.90
2018-07-12T17:09:14.347Z,29.83
2018-07-12T17:11:42.539Z,11.57
2018-07-12T17:14:10.874Z,6.37
2018-07-12T17:16:39.066Z,5.60
2018-07-12T17:19:07.326Z,10.20
2018-07-12T17:21:35.646Z,10.03
2018-07-12T17:24:03.930Z,8.70
2018-07-12T17:26:32.126Z,5.70
2018-07-12T17:29:00.318Z,4.60
2018-07-12T17:31:28.654Z,3.60
2018-07-12T17:33:57.045Z,8.77
2018-07-12T17:36:25.399Z,6.13
2018-07-12T17:38:54.474Z,6.57
2018-07-12T17:41:22.821Z,6.90
2018-07-12T17:43:51.009Z,3.97
2018-07-12T17:46:19.233Z,3.30
2018-07-12T17:48:47.481Z,3.40
2018-07-12T17:51:15.674Z,4.10
2018-07-12T17:53:43.928Z,4.00
2018-07-12T17:56:12.135Z,3.50
2018-07-12T17:58:40.586Z,3.27
2018-07-12T18:01:09.125Z,4.80
2018-07-12T18:03:37.326Z,3.60
2018-07-12T18:06:05.742Z,4.13
2018-07-12T18:08:33.903Z,3.23
2018-07-12T18:11:02.173Z,3.73
2018-07-12T18:13:31.002Z,3.40
2018-07-12T18:15:59.549Z,3.30
2018-07-12T18:18:27.841Z,3.13
2018-07-12T18:20:56.106Z,3.50
2018-07-12T18:23:24.626Z,3.23
2018-07-12T18:25:52.794Z,2.83
2018-07-12T18:28:20.972Z,3.13
2018-07-12T18:30:49.212Z,3.33
2018-07-12T18:33:18.290Z,3.90
2018-07-12T18:35:46.490Z,3.50
2018-07-12T18:38:14.665Z,3.67
2018-07-12T18:40:42.830Z,3.80
2018-07-12T18:43:11.038Z,3.50
2018-07-12T18:45:39.201Z,3.67
2018-07-12T18:48:07.430Z,3.40
2018-07-12T18:50:35.629Z,3.80
2018-07-12T18:53:03.876Z,3.50
2018-07-12T18:55:32.092Z,3.53
2018-07-12T18:58:00.553Z,4.17
2018-07-12T19:00:28.791Z,3.83
2018-07-12T19:02:56.990Z,4.10
2018-07-12T19:05:25.221Z,6.83
2018-07-12T19:07:53.860Z,24.40
2018-07-12T19:10:22.112Z,6.73
2018-07-12T19:12:50.463Z,5.53
2018-07-12T19:15:18.744Z,6.40
2018-07-12T19:17:46.946Z,5.50
2018-07-12T19:20:15.147Z,5.47
2018-07-12T19:22:43.370Z,13.17
2018-07-12T19:25:11.582Z,9.80
2018-07-12T19:27:39.822Z,9.80
2018-07-12T19:30:08.446Z,8.67
2018-07-12T19:32:36.705Z,5.33
2018-07-12T19:35:05.375Z,6.10
2018-07-12T19:37:33.434Z,5.60
2018-07-12T19:40:01.651Z,6.27
2018-07-12T19:42:29.853Z,5.00
2018-07-12T19:44:58.207Z,5.37
2018-07-12T19:47:26.454Z,5.50
2018-07-12T19:49:54.767Z,5.13
2018-07-12T19:52:23.141Z,4.80
2018-07-12T19:54:51.353Z,5.97
2018-07-12T19:57:19.597Z,5.27
2018-07-12T19:59:47.771Z,5.10
2018-07-12T20:02:16.039Z,6.10
2018-07-12T20:04:44.282Z,5.00
2018-07-12T20:07:13.745Z,5.10
2018-07-12T20:09:41.967Z,5.20
2018-07-12T20:12:10.179Z,5.43
2018-07-12T20:14:38.435Z,5.57
2018-07-12T20:17:06.707Z,5.33
2018-07-12T20:19:35.011Z,6.93
2018-07-12T20:22:03.234Z,6.10
2018-07-12T20:24:31.408Z,6.50
2018-07-12T20:26:59.867Z,6.33
2018-07-12T20:29:28.056Z,26.50
2018-07-12T20:31:56.312Z,12.13
2018-07-12T20:34:24.546Z,10.53
2018-07-12T20:36:53.613Z,7.95
2018-07-12T20:39:21.794Z,7.43
2018-07-12T20:41:50.154Z,6.23
2018-07-12T20:44:18.614Z,7.00
2018-07-12T20:46:46.845Z,7.43
2018-07-12T20:49:15.137Z,6.80
2018-07-12T20:51:43.354Z,6.20
2018-07-12T20:54:11.550Z,5.87
2018-07-12T20:56:39.850Z,6.90
2018-07-12T20:59:08.081Z,10.63
2018-07-12T21:01:36.278Z,13.20
2018-07-12T21:04:04.556Z,6.93
2018-07-12T21:06:32.954Z,5.93
2018-07-12T21:09:02.669Z,5.80
2018-07-12T21:11:30.875Z,6.33
2018-07-12T21:13:59.093Z,6.43
2018-07-12T21:16:28.817Z,5.70
2018-07-12T21:18:57.007Z,6.10
2018-07-12T21:21:25.213Z,5.90
2018-07-12T21:23:53.473Z,20.70
2018-07-12T21:26:21.721Z,7.43
2018-07-12T21:28:49.886Z,5.73
2018-07-12T21:31:18.080Z,6.60
2018-07-12T21:33:46.313Z,6.77
2018-07-12T21:36:14.502Z,6.37
2018-07-12T21:38:42.668Z,6.20
2018-07-12T21:41:10.971Z,5.97
2018-07-12T21:43:39.188Z,6.10
2018-07-12T21:46:07.360Z,6.40
2018-07-12T21:48:35.538Z,6.37
2018-07-12T21:51:03.702Z,6.30
2018-07-12T21:53:31.870Z,6.87
2018-07-12T21:56:00.062Z,6.17
2018-07-12T21:58:28.334Z,5.90
2018-07-12T22:00:56.490Z,6.00
2018-07-12T22:03:24.757Z,6.13
2018-07-12T22:05:53.466Z,6.10
2018-07-12T22:08:23.597Z,5.87
2018-07-12T22:10:53.134Z,6.20
2018-07-12T22:13:22.080Z,6.37
2018-07-12T22:15:50.260Z,5.57
2018-07-12T22:18:18.449Z,6.05
2018-07-12T22:20:46.643Z,6.40
2018-07-12T22:23:14.819Z,6.77
2018-07-12T22:25:43.035Z,5.90
2018-07-12T22:28:11.223Z,6.30
2018-07-12T22:30:39.465Z,6.40
2018-07-12T22:33:07.666Z,5.80
2018-07-12T22:35:35.842Z,5.97
2018-07-12T22:38:04.434Z,5.57
2018-07-12T22:40:32.849Z,5.43
2018-07-12T22:43:01.029Z,5.47
2018-07-12T22:45:29.234Z,5.43
2018-07-12T22:47:57.525Z,5.78
2018-07-12T22:50:25.981Z,5.50
2018-07-12T22:52:54.249Z,5.83
2018-07-12T22:55:22.468Z,5.70
2018-07-12T22:57:50.638Z,5.70
2018-07-12T23:00:18.822Z,4.80
2018-07-12T23:02:47.297Z,5.53
2018-07-12T23:05:15.745Z,5.93
2018-07-12T23:07:43.905Z,5.60
2018-07-12T23:10:13.057Z,6.50
2018-07-12T23:12:41.251Z,5.40
2018-07-12T23:15:09.427Z,5.70
2018-07-12T23:17:37.644Z,6.10
2018-07-12T23:20:05.848Z,5.27
2018-07-12T23:22:34.059Z,5.40
2018-07-12T23:25:02.242Z,5.50
2018-07-12T23:27:30.425Z,5.20
2018-07-12T23:29:58.876Z,5.30
2018-07-12T23:32:27.056Z,5.20
2018-07-12T23:34:55.338Z,4.50
2018-07-12T23:37:23.532Z,5.70
2018-07-12T23:39:51.716Z,5.67
2018-07-12T23:42:19.889Z,5.90
2018-07-12T23:44:48.052Z,6.20
2018-07-12T23:47:16.272Z,5.50
2018-07-12T23:49:44.442Z,5.20
2018-07-12T23:52:12.826Z,5.90
2018-07-12T23:54:40.992Z,5.00
2018-07-12T23:57:09.166Z,5.60
2018-07-12T23:59:37.410Z,5.00
